Aérodrome :
LOGIN :

S'inscrire | Disclaimer

   EN    FR    IT 

 










Légende :    VFR   VFR Marginal   IFR   IFR Intensif   IFR Très Intensif
Visi : 
Plafond : 
>= 8 km
>= 3000ft
5 à 8 km
1000 à 3000 ft
1500m à 5 km
500 à 1000 ft
800 à 1500m
200 à 500 ft
< 800m
< 200 ft
Symboles :   Orages  Brouillard  Fortes neiges  Fortes précipitations  Vent > 20 kt
SIGMETs :   Divers  Orages  Givrage  Turbulence  Onde Orograph.  Cendres Volcan.







- Altitude de l'aérodrome : 120 ft
- Code IATA : MME
- Voir les cartes d'approche


EGNV - Durham Tees valley

DERNIER METAR :
  • 222020Z 17016KT 9999 FEW039 SCT042 14/10 Q1017

METARs EXPIRÉS :
  • 221950Z 17016KT 9999 FEW036 13/09 Q1017
  • 221850Z 17012KT 9999 FEW025 13/09 Q1017
  • 221820Z 17011KT 9999 FEW045 13/09 Q1017
  • 221750Z 17009KT 9999 FEW038 12/10 Q1017

TAF TAF EGNV
Valide du 22 à 18h jusqu'au 22 à 21h UTC


221658Z 2218/2221 19012KT 9999 FEW030
TEMPO 2218/2221 18015G25KT 6000 RA BKN010
ATIS : +44 9012 018 111
Pas de NOTAMs connus pour ce terrain.



MET'MAP, la Météo Aéronautique d'un coup d'oeil ! - Copyright ORBIFLY Décembre 2007 - Disclaimer

ORBIFLY MET'MAP TEAM :

Programmation & Développement : Alexandra Zaïnal
Conception & Développement : Baudouin d'Aumeries
Co-Programmation & Développement : Marc-Olivier Méhu
Soutien technique & logistique : Manuel Goepfert

Contact : metmap@orbifly.com




SOURCES & CREDITS :

   NOAA